Portada
METAR-TAF:

METAR-TAF

Aeropuertos :

Jacksonville Municipal Airport

Jacksonville, Illinois, Estados Unidos

latitud: 39-46-27N, longitud: 090-14-19W, altitud: 190 m

Observación

El informe se hizo hace 30 minutos, a las 14:55 UTC
Viento 8 kt del oeste
Temperatura 3°C
Humedad 87%
Presión 1015 hPa
Visibilidad: 16.1 km
Cielo despejado

METAR: KIJX 051455Z AUTO 27008KT 10SM CLR 03/01 A2997 RMK AO2 T00340013

Hora: 09:25 (15:25 UTC)


TAF: falta

Observaciones y pronósticos meteorológicos de más de 4000 aeropuertos (mensajes METAR y TAF).

Los puntos amarillos y rojos representan las estaciones disponibles.

Ponga el ratón en el punto deseado para ver el nombre de la estación.

Haga clic para ver las observaciones y los pronósticos meteorológicos.

Para cambiar el mapa : haga clic en los botones verdes con una cruz de color negro para hacer un zoom, en el botón verde con un guión para alejar o en las flechas verdes para mapas adyacentes.


METAR-TAF: